Terminal Aerodrome Forecast
Issued by NWS

Home | Current Version | Previous Version | Text Only | Print | Product List | Glossary On
Versions: 1 2 3 4 5 6 7 8 9 10 11 12 13 14 15 16 17 18 19 20 21 22 23 24 25 26 27 28 29 30 31
000
FTUS45 KBOU 291735
TAFAPA
TAF
KAPA 291735Z 2918/3018 08007KT P6SM FEW070 SCT100
     FM292000 04009KT P6SM VCSH SCT060 BKN100
      TEMPO 2921/3001 VRB15G30KT -TSRA BKN050CB
     FM300100 10009KT P6SM VCSH SCT070 BKN100
     FM300300 21007KT P6SM FEW080 BKN140
     FM301500 VRB04KT P6SM FEW140=

USA.gov is the U.S. government's official web portal to all federal, state and local government web resources and services.